createdAt,value
2022-10-06T00:01:07.541Z,3.32
2022-10-06T00:02:38.939Z,2.69
2022-10-06T00:04:10.331Z,2.77
2022-10-06T00:05:41.590Z,4.82
2022-10-06T00:07:12.876Z,3.30
2022-10-06T00:08:44.338Z,4.42
2022-10-06T00:10:15.837Z,4.43
2022-10-06T00:11:47.073Z,3.25
2022-10-06T00:13:23.632Z,2.98
2022-10-06T00:14:55.156Z,3.55
2022-10-06T00:16:26.500Z,3.27
2022-10-06T00:17:58.217Z,3.79
2022-10-06T00:19:29.553Z,3.32
2022-10-06T00:21:00.802Z,3.17
2022-10-06T00:22:37.338Z,3.75
2022-10-06T00:24:08.640Z,3.57
2022-10-06T00:25:45.247Z,4.43
2022-10-06T00:27:16.686Z,4.10
2022-10-06T00:28:48.261Z,3.96
2022-10-06T00:30:19.658Z,4.54
2022-10-06T00:31:51.096Z,4.96
2022-10-06T00:33:22.561Z,5.64
2022-10-06T00:34:54.176Z,3.49
2022-10-06T00:36:25.653Z,3.34
2022-10-06T00:37:57.132Z,4.65
2022-10-06T00:39:28.495Z,3.70
2022-10-06T00:41:00.036Z,3.54
2022-10-06T00:42:31.434Z,4.46
2022-10-06T00:44:02.744Z,4.76
2022-10-06T00:45:34.140Z,3.34
2022-10-06T00:47:05.513Z,5.94
2022-10-06T00:48:36.873Z,5.26
2022-10-06T00:50:08.074Z,5.22
2022-10-06T00:51:39.359Z,3.68
2022-10-06T00:53:11.117Z,5.34
2022-10-06T00:54:42.397Z,6.45
2022-10-06T00:56:13.618Z,5.11
2022-10-06T00:57:44.873Z,6.28
2022-10-06T00:59:16.260Z,6.35
2022-10-06T01:00:47.528Z,4.74
2022-10-06T01:02:19.007Z,5.12
2022-10-06T01:03:50.497Z,6.08
2022-10-06T01:05:21.830Z,4.92
2022-10-06T01:06:53.202Z,5.86
2022-10-06T01:08:25.276Z,4.88
2022-10-06T01:10:02.010Z,5.45
2022-10-06T01:11:33.437Z,5.44
2022-10-06T01:13:05.255Z,6.10
2022-10-06T01:14:37.360Z,5.23
2022-10-06T01:16:08.702Z,5.37
2022-10-06T01:17:40.018Z,7.90
2022-10-06T01:19:11.300Z,7.71
2022-10-06T01:20:43.064Z,6.66
2022-10-06T01:22:14.397Z,9.37
2022-10-06T01:23:45.929Z,6.27
2022-10-06T01:25:17.181Z,5.50
2022-10-06T01:26:48.893Z,7.14
2022-10-06T01:28:20.497Z,7.95
2022-10-06T01:29:51.870Z,7.65
2022-10-06T01:31:23.544Z,8.41
2022-10-06T01:32:54.987Z,8.33
2022-10-06T01:34:26.262Z,6.39
2022-10-06T01:35:57.506Z,7.43
2022-10-06T01:37:29.084Z,8.18
2022-10-06T01:39:00.610Z,7.63
2022-10-06T01:40:32.235Z,6.00
2022-10-06T01:42:03.751Z,7.80
2022-10-06T01:43:35.017Z,6.31
2022-10-06T01:45:06.927Z,8.16
2022-10-06T01:46:38.332Z,6.96
2022-10-06T01:48:09.788Z,7.71
2022-10-06T01:49:41.069Z,8.91
2022-10-06T01:51:17.389Z,7.37
2022-10-06T01:52:48.717Z,7.45
2022-10-06T01:54:20.242Z,9.51
2022-10-06T01:55:51.597Z,10.09
2022-10-06T01:57:22.995Z,7.77
2022-10-06T01:58:54.425Z,9.49
2022-10-06T02:00:25.917Z,9.08
2022-10-06T02:01:57.363Z,9.30
2022-10-06T02:03:33.718Z,8.78
2022-10-06T02:05:05.109Z,6.92
2022-10-06T02:06:36.389Z,7.02
2022-10-06T02:08:07.739Z,10.24
2022-10-06T02:09:39.117Z,11.02
2022-10-06T02:11:10.891Z,8.71
2022-10-06T02:12:47.385Z,9.93
2022-10-06T02:14:18.693Z,8.73
2022-10-06T02:15:50.495Z,7.80
2022-10-06T02:17:21.776Z,10.65
2022-10-06T02:18:53.722Z,8.58
2022-10-06T02:20:30.106Z,9.00
2022-10-06T02:22:01.463Z,7.57
2022-10-06T02:23:33.053Z,9.80
2022-10-06T02:25:04.480Z,9.87
2022-10-06T02:26:35.799Z,9.46
2022-10-06T02:28:12.786Z,9.19
2022-10-06T02:29:44.070Z,11.07
2022-10-06T02:31:15.716Z,12.80
2022-10-06T02:32:47.099Z,9.99
2022-10-06T02:34:18.500Z,11.43
2022-10-06T02:35:50.172Z,10.08
2022-10-06T02:37:21.674Z,10.89
2022-10-06T02:38:53.187Z,8.68
2022-10-06T02:40:24.395Z,10.27
2022-10-06T02:41:55.641Z,9.29
2022-10-06T02:43:26.875Z,10.87
2022-10-06T02:44:58.286Z,11.41
2022-10-06T02:46:29.675Z,10.04
2022-10-06T02:48:01.247Z,12.30
2022-10-06T02:49:32.849Z,13.13
2022-10-06T02:51:04.275Z,8.62
2022-10-06T02:52:35.664Z,10.13
2022-10-06T02:54:06.974Z,10.54
2022-10-06T02:55:38.486Z,10.75
2022-10-06T02:57:09.929Z,11.52
2022-10-06T02:58:41.513Z,10.61
2022-10-06T03:00:17.742Z,10.50
2022-10-06T03:01:49.287Z,13.54
2022-10-06T03:03:26.319Z,11.25
2022-10-06T03:04:57.848Z,11.13
2022-10-06T03:06:29.203Z,10.16
2022-10-06T03:08:01.227Z,12.13
2022-10-06T03:09:32.457Z,11.03
2022-10-06T03:11:04.203Z,12.52
2022-10-06T03:12:35.590Z,10.91
2022-10-06T03:14:12.176Z,13.26
2022-10-06T03:15:44.393Z,13.85
2022-10-06T03:17:16.040Z,12.21
2022-10-06T03:18:47.561Z,13.91
2022-10-06T03:20:19.053Z,11.99
2022-10-06T03:21:50.497Z,11.90
2022-10-06T03:23:23.149Z,10.80
2022-10-06T03:24:54.592Z,12.81
2022-10-06T03:26:25.956Z,9.22
2022-10-06T03:27:57.400Z,11.24
2022-10-06T03:29:28.755Z,8.79
2022-10-06T03:31:00.389Z,9.98
2022-10-06T03:32:32.046Z,11.38
2022-10-06T03:34:03.619Z,10.74
2022-10-06T03:35:35.377Z,10.54
2022-10-06T03:37:06.609Z,11.50
2022-10-06T03:38:38.028Z,11.28
2022-10-06T03:40:09.268Z,9.47
2022-10-06T03:41:40.699Z,10.77
2022-10-06T03:43:11.997Z,9.68
2022-10-06T03:44:43.380Z,9.83
2022-10-06T03:46:14.772Z,10.50
2022-10-06T03:47:46.332Z,10.20
2022-10-06T03:49:19.064Z,10.68
2022-10-06T03:50:50.796Z,10.98
2022-10-06T03:52:27.126Z,12.50
2022-10-06T03:53:58.761Z,11.39
2022-10-06T03:55:30.209Z,13.46
2022-10-06T03:57:02.858Z,12.32
2022-10-06T03:58:34.607Z,9.25
2022-10-06T04:00:06.011Z,9.90
2022-10-06T04:01:37.637Z,10.00
2022-10-06T04:03:08.883Z,10.87
2022-10-06T04:04:40.167Z,9.62
2022-10-06T04:06:16.727Z,11.05
2022-10-06T04:07:48.080Z,12.89
2022-10-06T04:09:19.473Z,11.97
2022-10-06T04:10:51.169Z,11.14
2022-10-06T04:12:27.527Z,9.58
2022-10-06T04:13:58.945Z,10.50
2022-10-06T04:15:30.304Z,11.17
2022-10-06T04:17:01.626Z,10.58
2022-10-06T04:18:33.253Z,10.45
2022-10-06T04:20:04.612Z,12.37
2022-10-06T04:21:36.047Z,13.29
2022-10-06T04:23:08.342Z,11.29
2022-10-06T04:24:39.681Z,12.18
2022-10-06T04:26:10.987Z,11.29
2022-10-06T04:27:47.365Z,10.98
2022-10-06T04:30:37.591Z,10.97
2022-10-06T04:32:09.959Z,11.61
2022-10-06T04:33:41.334Z,14.15
2022-10-06T04:35:12.622Z,13.46
2022-10-06T04:36:44.064Z,12.03
2022-10-06T04:38:15.486Z,12.48
2022-10-06T04:39:46.815Z,10.47
2022-10-06T04:41:20.780Z,12.50
2022-10-06T04:42:52.400Z,12.58
2022-10-06T04:44:23.998Z,14.58
2022-10-06T04:45:55.551Z,13.61
2022-10-06T04:47:27.054Z,13.01
2022-10-06T04:48:58.361Z,12.89
2022-10-06T04:50:29.993Z,14.90
2022-10-06T04:52:01.290Z,14.87
2022-10-06T04:53:33.310Z,14.98
2022-10-06T04:55:04.932Z,13.42
2022-10-06T04:56:36.166Z,14.79
2022-10-06T04:58:07.448Z,13.81
2022-10-06T04:59:39.060Z,13.24
2022-10-06T05:01:10.376Z,14.76
2022-10-06T05:02:41.753Z,13.94
2022-10-06T05:04:13.518Z,14.91
2022-10-06T05:05:44.791Z,12.44
2022-10-06T05:07:16.142Z,11.49
2022-10-06T05:08:47.750Z,13.78
2022-10-06T05:10:19.265Z,15.27
2022-10-06T05:11:50.621Z,11.93
2022-10-06T05:13:22.834Z,13.99
2022-10-06T05:14:54.130Z,11.90
2022-10-06T05:16:25.558Z,14.35
2022-10-06T05:17:57.292Z,12.63
2022-10-06T05:19:29.076Z,16.18
2022-10-06T05:21:05.753Z,13.40
2022-10-06T05:22:37.829Z,13.82
2022-10-06T05:24:09.207Z,14.74
2022-10-06T05:25:40.694Z,13.76
2022-10-06T05:27:12.302Z,16.30
2022-10-06T05:28:45.915Z,15.57
2022-10-06T05:30:18.161Z,14.07
2022-10-06T05:31:49.567Z,16.39
2022-10-06T05:33:20.855Z,11.75
2022-10-06T05:34:52.239Z,14.12
2022-10-06T05:36:23.610Z,14.41
2022-10-06T05:37:56.403Z,17.42
2022-10-06T05:39:27.724Z,16.66
2022-10-06T05:40:59.144Z,14.17
2022-10-06T05:42:30.530Z,13.04
2022-10-06T05:44:01.771Z,18.15
2022-10-06T05:45:33.580Z,16.28
2022-10-06T05:47:05.067Z,14.22
2022-10-06T05:48:36.316Z,13.66
2022-10-06T05:50:07.721Z,16.38
2022-10-06T05:51:39.058Z,13.95
2022-10-06T05:53:10.479Z,13.83
2022-10-06T05:54:41.976Z,14.61
2022-10-06T05:56:13.287Z,17.56
2022-10-06T05:57:44.970Z,14.89
2022-10-06T05:59:31.344Z,14.98
2022-10-06T06:01:02.814Z,12.72
2022-10-06T06:02:34.543Z,16.20
2022-10-06T06:04:06.054Z,15.64
2022-10-06T06:05:37.593Z,14.24
2022-10-06T06:07:09.187Z,15.18
2022-10-06T06:08:40.800Z,17.52
2022-10-06T06:10:12.187Z,16.66
2022-10-06T06:11:43.566Z,15.80
2022-10-06T06:13:14.964Z,16.47
2022-10-06T06:14:46.471Z,15.60
2022-10-06T06:16:18.155Z,18.36
2022-10-06T06:17:49.396Z,16.63
2022-10-06T06:19:20.828Z,14.96
2022-10-06T06:20:52.218Z,13.95
2022-10-06T06:22:23.732Z,15.73
2022-10-06T06:23:55.538Z,16.72
2022-10-06T06:25:27.137Z,14.43
2022-10-06T06:26:58.541Z,17.25
2022-10-06T06:28:30.217Z,16.67
2022-10-06T06:30:01.945Z,16.17
2022-10-06T06:31:33.803Z,15.44
2022-10-06T06:33:05.188Z,18.75
2022-10-06T06:34:36.591Z,16.28
2022-10-06T06:36:08.550Z,17.71
2022-10-06T06:37:40.222Z,16.04
2022-10-06T06:39:11.532Z,16.50
2022-10-06T06:40:42.957Z,20.19
2022-10-06T06:42:14.377Z,15.35
2022-10-06T06:43:45.797Z,17.72
2022-10-06T06:45:17.452Z,14.38
2022-10-06T06:46:49.027Z,16.53
2022-10-06T06:48:20.352Z,19.29
2022-10-06T06:49:51.887Z,16.43
2022-10-06T06:51:23.429Z,16.29
2022-10-06T06:52:54.942Z,19.23
2022-10-06T06:54:26.376Z,19.49
2022-10-06T06:55:57.685Z,21.29
2022-10-06T06:57:29.196Z,21.36
2022-10-06T06:59:00.500Z,17.73
2022-10-06T07:00:36.044Z,19.39
2022-10-06T07:02:08.004Z,20.37
2022-10-06T07:03:56.656Z,17.11
2022-10-06T07:05:28.265Z,13.76
2022-10-06T07:06:59.620Z,18.24
2022-10-06T07:08:31.551Z,16.73
2022-10-06T07:10:03.605Z,19.64
2022-10-06T07:11:35.125Z,17.18
2022-10-06T07:13:06.314Z,17.03
2022-10-06T07:14:37.761Z,17.65
2022-10-06T07:16:09.537Z,17.54
2022-10-06T07:17:41.156Z,19.99
2022-10-06T07:19:12.909Z,17.71
2022-10-06T07:20:44.201Z,23.11
2022-10-06T07:22:15.859Z,18.22
2022-10-06T07:23:47.174Z,16.36
2022-10-06T07:25:24.384Z,19.00
2022-10-06T07:27:02.226Z,21.93
2022-10-06T07:28:34.032Z,21.89
2022-10-06T07:30:05.373Z,19.82
2022-10-06T07:31:37.067Z,16.24
2022-10-06T07:33:08.447Z,18.58
2022-10-06T07:34:40.166Z,19.68
2022-10-06T07:36:16.743Z,19.66
2022-10-06T07:37:48.274Z,19.59
2022-10-06T07:39:20.055Z,17.04
2022-10-06T07:41:14.459Z,21.48
2022-10-06T07:42:50.610Z,22.34
2022-10-06T07:44:22.012Z,20.20
2022-10-06T07:45:53.395Z,20.74
2022-10-06T07:47:25.496Z,22.81
2022-10-06T07:48:57.043Z,22.73
2022-10-06T07:50:28.450Z,19.96
2022-10-06T07:52:00.238Z,18.80
2022-10-06T07:53:31.655Z,20.30
2022-10-06T07:55:03.132Z,16.93
2022-10-06T07:56:34.872Z,20.29
2022-10-06T07:58:06.189Z,19.64
2022-10-06T07:59:47.859Z,19.07
2022-10-06T08:01:19.209Z,18.29
2022-10-06T08:02:50.665Z,17.79
2022-10-06T08:04:22.233Z,18.78
2022-10-06T08:06:10.770Z,19.70
2022-10-06T08:07:42.427Z,19.03
2022-10-06T08:09:13.709Z,21.03
2022-10-06T08:10:45.167Z,17.93
2022-10-06T08:12:16.932Z,17.38
2022-10-06T08:14:03.340Z,20.51
2022-10-06T08:15:34.591Z,15.87
2022-10-06T08:17:06.414Z,21.12
2022-10-06T08:18:46.940Z,22.59
2022-10-06T08:20:18.888Z,20.83
2022-10-06T08:21:50.650Z,19.97
2022-10-06T08:23:21.913Z,20.83
2022-10-06T08:25:05.355Z,17.74
2022-10-06T08:26:37.706Z,20.46
2022-10-06T08:28:09.165Z,18.84
2022-10-06T08:29:46.246Z,21.06
2022-10-06T08:31:17.952Z,21.83
2022-10-06T08:32:50.007Z,22.28
2022-10-06T08:34:26.439Z,21.85
2022-10-06T08:35:58.678Z,18.73
2022-10-06T08:37:35.806Z,18.58
2022-10-06T08:39:07.222Z,17.98
2022-10-06T08:40:38.803Z,20.86
2022-10-06T08:42:17.707Z,19.93
2022-10-06T08:43:49.003Z,19.99
2022-10-06T08:45:20.850Z,19.51
2022-10-06T08:46:52.597Z,18.17
2022-10-06T08:48:24.326Z,14.30
2022-10-06T08:49:56.045Z,23.85
2022-10-06T08:51:28.014Z,22.51
2022-10-06T08:52:59.679Z,19.81
2022-10-06T08:54:31.290Z,17.49
2022-10-06T08:56:02.738Z,20.30
2022-10-06T08:57:34.432Z,18.48
2022-10-06T08:59:06.189Z,23.93
2022-10-06T09:00:37.803Z,21.48
2022-10-06T09:02:09.737Z,21.95
2022-10-06T09:03:41.289Z,19.95
2022-10-06T09:05:12.815Z,16.72
2022-10-06T09:06:54.379Z,22.62
2022-10-06T09:08:26.028Z,17.52
2022-10-06T09:09:57.806Z,20.17
2022-10-06T09:11:54.321Z,18.36
2022-10-06T09:13:26.132Z,21.78
2022-10-06T09:14:57.523Z,20.39
2022-10-06T09:16:29.323Z,19.32
2022-10-06T09:18:01.087Z,22.80
2022-10-06T09:19:33.789Z,19.34
2022-10-06T09:21:05.417Z,18.48
2022-10-06T09:22:36.734Z,17.72
2022-10-06T09:24:08.108Z,19.15
2022-10-06T09:25:40.773Z,17.54
2022-10-06T09:27:12.105Z,18.50
2022-10-06T09:28:44.138Z,17.79
2022-10-06T09:30:15.776Z,21.18
2022-10-06T09:31:47.510Z,18.71
2022-10-06T09:33:19.008Z,18.80
2022-10-06T09:34:50.571Z,19.53
2022-10-06T09:36:22.300Z,18.66
2022-10-06T09:37:53.811Z,19.04
2022-10-06T09:39:25.534Z,16.62
2022-10-06T09:40:57.031Z,21.23
2022-10-06T09:42:28.548Z,19.51
2022-10-06T09:44:00.306Z,17.35
2022-10-06T09:45:42.365Z,18.08
2022-10-06T09:47:13.898Z,20.11
2022-10-06T09:48:45.749Z,15.82
2022-10-06T09:52:08.281Z,16.31
2022-10-06T09:53:39.717Z,16.94
2022-10-06T09:55:11.264Z,17.06
2022-10-06T09:56:42.783Z,17.25
2022-10-06T09:58:14.722Z,17.85
2022-10-06T09:59:46.362Z,17.30
2022-10-06T10:01:17.746Z,17.42
2022-10-06T10:02:50.116Z,16.41
2022-10-06T10:04:26.885Z,16.91
2022-10-06T10:05:58.288Z,17.78
2022-10-06T10:07:30.145Z,16.35
2022-10-06T10:09:01.794Z,18.80
2022-10-06T10:10:33.392Z,16.66
2022-10-06T10:12:05.623Z,17.72
2022-10-06T10:13:37.401Z,16.17
2022-10-06T10:15:09.109Z,15.68
2022-10-06T10:16:40.949Z,14.80
2022-10-06T10:18:12.588Z,14.59
2022-10-06T10:19:45.321Z,15.05
2022-10-06T10:21:16.690Z,20.18
2022-10-06T10:22:48.186Z,16.74
2022-10-06T10:24:19.569Z,18.00
2022-10-06T10:25:51.281Z,13.69
2022-10-06T10:27:23.417Z,14.30
2022-10-06T10:28:55.501Z,14.96
2022-10-06T10:30:27.698Z,13.41
2022-10-06T10:31:59.507Z,10.60
2022-10-06T10:33:31.044Z,14.92
2022-10-06T10:35:02.636Z,16.01
2022-10-06T10:36:34.372Z,13.78
2022-10-06T10:38:06.006Z,14.63
2022-10-06T10:39:42.494Z,12.20
2022-10-06T10:41:14.108Z,11.23
2022-10-06T10:42:46.315Z,13.69
2022-10-06T10:44:17.999Z,11.50
2022-10-06T10:45:49.522Z,11.47
2022-10-06T10:47:21.439Z,9.47
2022-10-06T10:48:52.942Z,13.65
2022-10-06T10:50:24.923Z,12.19
2022-10-06T10:51:56.686Z,10.67
2022-10-06T10:53:28.621Z,10.64
2022-10-06T10:55:00.693Z,8.50
2022-10-06T10:56:32.518Z,12.50
2022-10-06T10:58:03.927Z,12.22
2022-10-06T10:59:35.361Z,10.83
2022-10-06T11:01:06.812Z,11.90
2022-10-06T11:02:38.715Z,9.76
2022-10-06T11:04:10.522Z,8.38
2022-10-06T11:05:42.255Z,9.54
2022-10-06T11:07:14.150Z,9.92
2022-10-06T11:08:45.560Z,9.84
2022-10-06T11:10:18.029Z,10.25
2022-10-06T11:11:52.251Z,11.99
2022-10-06T11:13:23.936Z,10.71
2022-10-06T11:14:55.964Z,10.06
2022-10-06T11:16:28.818Z,8.61
2022-10-06T11:18:00.707Z,8.57
2022-10-06T11:19:32.069Z,9.29
2022-10-06T11:21:03.601Z,8.19
2022-10-06T11:22:35.020Z,10.28
2022-10-06T11:24:06.587Z,11.90
2022-10-06T11:25:38.450Z,10.77
2022-10-06T11:27:10.121Z,10.82
2022-10-06T11:28:42.024Z,9.46
2022-10-06T11:30:13.591Z,10.49
2022-10-06T11:31:45.385Z,9.77
2022-10-06T11:33:17.486Z,11.23
2022-10-06T11:34:49.372Z,9.31
2022-10-06T11:36:21.051Z,10.58
2022-10-06T11:37:54.070Z,9.62
2022-10-06T11:39:25.694Z,11.10
2022-10-06T11:41:06.163Z,9.48
2022-10-06T11:42:40.462Z,9.98
2022-10-06T11:44:11.848Z,11.19
2022-10-06T11:45:43.625Z,11.11
2022-10-06T11:47:15.689Z,12.47
2022-10-06T11:48:47.279Z,9.64
2022-10-06T11:50:18.821Z,9.41
2022-10-06T11:51:50.375Z,8.35
2022-10-06T11:53:21.848Z,9.09
2022-10-06T11:54:54.082Z,11.16
2022-10-06T11:56:25.657Z,9.78
2022-10-06T11:57:57.336Z,10.77
2022-10-06T11:59:29.019Z,8.84
2022-10-06T12:01:00.909Z,9.43
2022-10-06T12:02:33.099Z,7.88
2022-10-06T12:04:05.108Z,9.27
2022-10-06T12:05:55.904Z,9.23
2022-10-06T12:07:28.489Z,8.13
2022-10-06T12:09:00.111Z,8.21
2022-10-06T12:10:36.955Z,10.62
2022-10-06T12:12:08.356Z,9.00
2022-10-06T12:14:34.750Z,8.21
2022-10-06T12:17:11.510Z,8.74
2022-10-06T12:18:44.508Z,8.09
2022-10-06T12:20:16.260Z,8.68
2022-10-06T12:21:47.915Z,8.81
2022-10-06T12:23:19.853Z,9.91
2022-10-06T12:24:51.423Z,8.94
2022-10-06T12:26:23.032Z,7.96
2022-10-06T12:27:55.938Z,8.60
2022-10-06T12:29:27.822Z,9.41
2022-10-06T12:30:59.821Z,7.78
2022-10-06T12:32:31.647Z,9.99
2022-10-06T12:34:03.225Z,9.49
2022-10-06T12:35:34.802Z,8.40
2022-10-06T12:37:06.425Z,7.55
2022-10-06T12:38:43.130Z,7.53
2022-10-06T12:40:14.768Z,8.97
2022-10-06T12:42:33.079Z,9.33
2022-10-06T12:44:05.790Z,8.07
2022-10-06T12:45:57.757Z,9.81
2022-10-06T12:48:14.791Z,8.36
2022-10-06T12:50:04.000Z,8.27
2022-10-06T12:51:35.806Z,7.73
2022-10-06T12:53:07.582Z,7.70
2022-10-06T12:54:47.933Z,6.73
2022-10-06T12:56:19.515Z,7.41
2022-10-06T12:57:51.251Z,7.01
2022-10-06T12:59:28.141Z,7.34
2022-10-06T13:01:16.489Z,6.60
2022-10-06T13:02:48.245Z,6.95
2022-10-06T13:04:20.118Z,6.67
2022-10-06T13:05:51.768Z,7.91
2022-10-06T13:07:23.448Z,9.72
2022-10-06T13:08:55.370Z,8.43
2022-10-06T13:10:27.046Z,7.59
2022-10-06T13:11:58.863Z,8.18
2022-10-06T13:13:30.586Z,6.87
2022-10-06T13:15:02.198Z,6.89
2022-10-06T13:16:33.955Z,8.18
2022-10-06T13:18:06.150Z,7.94
2022-10-06T13:19:38.057Z,8.29
2022-10-06T13:21:09.490Z,8.56
2022-10-06T13:22:41.264Z,7.65
2022-10-06T13:24:12.908Z,7.72
2022-10-06T13:25:44.395Z,7.20
2022-10-06T13:27:15.969Z,9.06
2022-10-06T13:28:48.487Z,6.87
2022-10-06T13:30:20.310Z,7.82
2022-10-06T13:31:53.148Z,8.32
2022-10-06T13:33:24.889Z,8.35
2022-10-06T13:34:56.871Z,8.41
2022-10-06T13:36:29.031Z,6.82
2022-10-06T13:38:03.859Z,9.85
2022-10-06T13:39:37.687Z,7.57
2022-10-06T13:41:09.180Z,6.73
2022-10-06T13:42:40.647Z,7.32
2022-10-06T13:44:12.190Z,8.32
2022-10-06T13:45:43.843Z,7.15
2022-10-06T13:47:15.356Z,7.22
2022-10-06T13:48:46.852Z,8.37
2022-10-06T13:50:19.917Z,8.72
2022-10-06T13:51:51.753Z,9.23
2022-10-06T13:53:23.413Z,8.52
2022-10-06T13:54:54.973Z,10.15
2022-10-06T13:56:26.680Z,7.55
2022-10-06T13:57:58.245Z,6.77
2022-10-06T13:59:29.655Z,8.99
2022-10-06T14:01:01.532Z,9.84
2022-10-06T14:02:33.750Z,9.36
2022-10-06T14:04:05.685Z,9.40
2022-10-06T14:05:37.236Z,9.29
2022-10-06T14:07:08.725Z,9.92
2022-10-06T14:08:40.441Z,11.52
2022-10-06T14:10:12.058Z,8.14
2022-10-06T14:11:46.188Z,12.03
2022-10-06T14:13:18.536Z,9.53
2022-10-06T14:14:50.032Z,10.16
2022-10-06T14:16:21.677Z,9.00
2022-10-06T14:17:53.336Z,9.62
2022-10-06T14:19:25.149Z,7.88
2022-10-06T14:20:57.121Z,8.90
2022-10-06T14:22:28.720Z,10.50
2022-10-06T14:24:04.762Z,9.21
2022-10-06T14:25:39.115Z,8.71
2022-10-06T14:27:10.736Z,8.93
2022-10-06T14:28:42.494Z,9.43
2022-10-06T14:30:14.441Z,8.37
2022-10-06T14:31:51.273Z,9.21
2022-10-06T14:33:22.784Z,10.24
2022-10-06T14:34:54.316Z,11.94
2022-10-06T14:36:25.719Z,11.34
2022-10-06T14:37:57.638Z,9.27
2022-10-06T14:39:29.335Z,9.09
2022-10-06T14:41:00.882Z,8.92
2022-10-06T14:42:32.347Z,10.53
2022-10-06T14:44:03.914Z,11.11
2022-10-06T14:45:35.488Z,9.57
2022-10-06T14:47:06.871Z,9.33
2022-10-06T14:48:38.387Z,9.97
2022-10-06T14:50:09.827Z,8.84
2022-10-06T14:51:41.809Z,9.53
2022-10-06T14:53:13.556Z,7.69
2022-10-06T14:54:44.920Z,10.64
2022-10-06T14:56:16.352Z,10.18
2022-10-06T14:57:47.991Z,9.57
2022-10-06T14:59:19.781Z,9.93
2022-10-06T15:00:52.008Z,9.95
2022-10-06T15:02:23.756Z,9.71
2022-10-06T15:03:55.316Z,9.46
2022-10-06T15:05:26.875Z,11.01
2022-10-06T15:06:58.669Z,10.95
2022-10-06T15:08:30.258Z,8.61
2022-10-06T15:10:01.793Z,10.10
2022-10-06T15:11:33.161Z,11.09
2022-10-06T15:13:04.615Z,10.49
2022-10-06T15:14:36.245Z,10.07
2022-10-06T15:16:07.812Z,8.16
2022-10-06T15:17:39.316Z,8.49
2022-10-06T15:19:11.284Z,8.97
2022-10-06T15:20:42.983Z,8.92
2022-10-06T15:22:15.054Z,9.41
2022-10-06T15:23:46.443Z,11.10
2022-10-06T15:25:18.310Z,12.08
2022-10-06T15:26:50.116Z,10.85
2022-10-06T15:28:23.643Z,11.54
2022-10-06T15:29:55.548Z,9.71
2022-10-06T15:31:27.543Z,8.98
2022-10-06T15:32:58.869Z,9.90
2022-10-06T15:34:35.584Z,9.35
2022-10-06T15:36:33.409Z,11.51
2022-10-06T15:38:04.855Z,10.88
2022-10-06T15:39:36.184Z,9.19
2022-10-06T15:41:08.003Z,10.08
2022-10-06T15:42:39.431Z,9.68
2022-10-06T15:44:10.889Z,10.44
2022-10-06T15:45:42.800Z,10.57
2022-10-06T15:47:14.413Z,9.93
2022-10-06T15:48:45.840Z,8.99
2022-10-06T15:50:18.920Z,10.95
2022-10-06T15:51:51.408Z,10.74
2022-10-06T15:53:22.802Z,9.88
2022-10-06T15:54:54.283Z,9.78
2022-10-06T15:56:47.435Z,9.22
2022-10-06T15:58:19.434Z,8.07
2022-10-06T15:59:51.187Z,11.26
2022-10-06T16:01:22.843Z,9.99
2022-10-06T16:02:54.556Z,9.33
2022-10-06T16:04:26.150Z,9.53
2022-10-06T16:05:57.993Z,11.74
2022-10-06T16:07:29.587Z,13.33
2022-10-06T16:09:00.933Z,20.55
2022-10-06T16:10:32.388Z,13.86
2022-10-06T16:12:03.798Z,31.04
2022-10-06T16:13:35.420Z,20.90
2022-10-06T16:15:12.026Z,11.50
2022-10-06T16:16:43.966Z,11.19
2022-10-06T16:18:15.962Z,12.38
2022-10-06T16:19:47.757Z,11.72
2022-10-06T16:21:20.738Z,9.05
2022-10-06T16:22:52.246Z,10.09
2022-10-06T16:24:38.714Z,9.67
2022-10-06T16:26:16.506Z,9.63
2022-10-06T16:27:53.037Z,9.47
2022-10-06T16:29:24.368Z,11.32
2022-10-06T16:31:00.838Z,9.45
2022-10-06T16:32:38.301Z,9.80
2022-10-06T16:34:09.980Z,8.70
2022-10-06T16:35:41.639Z,8.99
2022-10-06T16:37:13.156Z,10.76
2022-10-06T16:38:44.570Z,8.94
2022-10-06T16:40:15.994Z,8.56
2022-10-06T16:41:47.824Z,10.45
2022-10-06T16:43:19.222Z,8.14
2022-10-06T16:44:50.627Z,9.11
2022-10-06T16:46:22.140Z,10.91
2022-10-06T16:47:53.959Z,9.86
2022-10-06T16:49:25.268Z,8.11
2022-10-06T16:51:01.689Z,8.69
2022-10-06T16:52:33.006Z,7.16
2022-10-06T16:54:04.320Z,7.43
2022-10-06T16:55:35.845Z,11.07
2022-10-06T16:57:07.785Z,10.01
2022-10-06T16:58:39.257Z,9.54
2022-10-06T17:00:10.666Z,7.79
2022-10-06T17:01:47.000Z,9.82
2022-10-06T17:03:18.489Z,9.14
2022-10-06T17:04:49.811Z,11.42
2022-10-06T17:06:21.483Z,10.04
2022-10-06T17:07:56.995Z,9.30
2022-10-06T17:09:30.729Z,8.45
2022-10-06T17:11:08.043Z,8.07
2022-10-06T17:12:40.129Z,9.37
2022-10-06T17:14:11.635Z,10.14
2022-10-06T17:15:43.392Z,8.27
2022-10-06T17:17:25.021Z,8.61
2022-10-06T17:18:56.604Z,8.68
2022-10-06T17:20:28.221Z,9.89
2022-10-06T17:22:06.144Z,9.01
2022-10-06T17:24:11.182Z,8.65
2022-10-06T17:25:43.039Z,9.84
2022-10-06T17:27:14.558Z,8.24
2022-10-06T17:28:46.258Z,11.62
2022-10-06T17:30:17.987Z,9.56
2022-10-06T17:31:49.607Z,11.40
2022-10-06T17:33:21.131Z,11.26
2022-10-06T17:34:57.494Z,9.05
2022-10-06T17:36:59.292Z,10.69
2022-10-06T17:38:57.218Z,9.46
2022-10-06T17:40:39.025Z,9.63
2022-10-06T17:42:32.837Z,10.88
2022-10-06T17:44:31.405Z,11.54
2022-10-06T17:46:36.975Z,8.89
2022-10-06T17:48:08.854Z,10.78
2022-10-06T17:49:41.048Z,12.96
2022-10-06T17:51:12.479Z,12.74
2022-10-06T17:52:44.245Z,30.90
2022-10-06T17:54:17.941Z,23.88
2022-10-06T17:55:49.735Z,15.67
2022-10-06T17:58:04.110Z,14.48
2022-10-06T17:59:35.734Z,16.12
2022-10-06T18:01:07.372Z,11.28
2022-10-06T18:02:39.459Z,9.80
2022-10-06T18:04:11.105Z,12.47
2022-10-06T18:05:42.570Z,16.55
2022-10-06T18:07:14.015Z,12.74
2022-10-06T18:08:45.680Z,10.22
2022-10-06T18:10:17.512Z,13.81
2022-10-06T18:11:49.234Z,11.20
2022-10-06T18:13:22.175Z,8.42
2022-10-06T18:14:53.477Z,12.30
2022-10-06T18:16:25.327Z,12.02
2022-10-06T18:17:57.142Z,10.56
2022-10-06T18:19:28.520Z,10.59
2022-10-06T18:20:59.908Z,11.61
2022-10-06T18:22:31.258Z,11.37
2022-10-06T18:24:07.698Z,10.28
2022-10-06T18:25:39.250Z,10.84
2022-10-06T18:27:10.777Z,10.70
2022-10-06T18:28:42.518Z,11.73
2022-10-06T18:30:13.991Z,13.41
2022-10-06T18:31:45.598Z,12.09
2022-10-06T18:36:10.981Z,10.61
2022-10-06T18:37:44.304Z,9.78
2022-10-06T18:39:16.015Z,11.37
2022-10-06T18:40:47.546Z,11.15
2022-10-06T18:42:20.429Z,11.46
2022-10-06T18:43:52.478Z,11.82
2022-10-06T18:45:24.653Z,11.07
2022-10-06T18:46:56.509Z,12.23
2022-10-06T18:48:28.277Z,12.25
2022-10-06T18:49:59.634Z,10.43
2022-10-06T18:51:31.260Z,10.38
2022-10-06T18:53:03.409Z,13.79
2022-10-06T18:54:34.696Z,10.25
2022-10-06T18:56:07.013Z,17.08
2022-10-06T18:57:38.369Z,12.58
2022-10-06T18:59:09.866Z,11.35
2022-10-06T19:00:41.249Z,10.72
2022-10-06T19:02:13.458Z,9.51
2022-10-06T19:03:44.925Z,12.05
2022-10-06T19:05:16.267Z,9.78
2022-10-06T19:06:48.971Z,8.37
2022-10-06T19:08:20.485Z,8.47
2022-10-06T19:09:52.070Z,9.03
2022-10-06T19:11:23.613Z,10.44
2022-10-06T19:12:54.956Z,10.07
2022-10-06T19:15:05.760Z,8.64
2022-10-06T19:16:37.395Z,9.79
2022-10-06T19:18:08.777Z,10.15
2022-10-06T19:19:40.082Z,12.03
2022-10-06T19:21:11.424Z,9.42
2022-10-06T19:22:42.725Z,11.66
2022-10-06T19:24:14.034Z,11.91
2022-10-06T19:25:45.645Z,10.90
2022-10-06T19:27:17.263Z,8.46
2022-10-06T19:28:48.751Z,10.42
2022-10-06T19:30:20.232Z,10.25
2022-10-06T19:31:51.750Z,13.28
2022-10-06T19:33:23.084Z,8.97
2022-10-06T19:34:54.544Z,11.52
2022-10-06T19:36:25.998Z,13.18
2022-10-06T19:37:57.461Z,10.91
2022-10-06T19:39:28.767Z,11.71
2022-10-06T19:41:00.333Z,10.94
2022-10-06T19:42:31.763Z,13.75
2022-10-06T19:44:02.983Z,16.05
2022-10-06T19:45:34.362Z,15.66
2022-10-06T19:47:05.777Z,11.79
2022-10-06T19:48:37.052Z,9.71
2022-10-06T19:50:12.193Z,10.33
2022-10-06T19:51:44.289Z,15.62
2022-10-06T19:53:15.638Z,17.46
2022-10-06T19:54:47.003Z,15.43
2022-10-06T19:56:18.557Z,13.56
2022-10-06T19:57:51.058Z,11.43
2022-10-06T19:59:22.776Z,10.60
2022-10-06T20:00:55.172Z,11.71
2022-10-06T20:02:26.445Z,9.75
2022-10-06T20:03:57.932Z,9.89
2022-10-06T20:05:29.394Z,12.51
2022-10-06T20:07:05.925Z,11.93
2022-10-06T20:08:37.778Z,11.60
2022-10-06T20:10:09.082Z,10.62
2022-10-06T20:11:40.560Z,12.22
2022-10-06T20:13:11.887Z,9.62
2022-10-06T20:14:43.247Z,9.25
2022-10-06T20:16:14.673Z,12.12
2022-10-06T20:17:46.302Z,11.10
2022-10-06T20:19:19.003Z,8.50